Time;durP1;ratioP1;P1;durP2;ratioP2;P2;SDS_P1;SDS_P2;PMS_P1;PMS_P2;Temp;Humidity;BMP_temperature;BMP_pressure;BME280_temperature;BME280_humidity;BME280_pressure;Samples;Min_cycle;Max_cycle;Signal;HPM_P1;HPM_P2
2021/07/11 00:00:00;;;;;;;8.30;7.57;;;14.40;99.90;;;;;;4992296;28;20074;-86
2021/07/11 00:02:29;;;;;;;8.77;7.18;;;14.40;99.90;;;;;;4991945;28;20054;-86
2021/07/11 00:04:56;;;;;;;7.82;7.10;;;14.40;99.90;;;;;;4991290;28;20051;-85
2021/07/11 00:07:23;;;;;;;8.10;7.20;;;14.50;99.90;;;;;;4988848;28;20055;-85
2021/07/11 00:09:49;;;;;;;9.30;8.43;;;14.40;99.90;;;;;;4988840;28;20057;-85
2021/07/11 00:12:16;;;;;;;8.70;7.90;;;14.40;99.90;;;;;;4988472;28;20054;-87
2021/07/11 00:14:43;;;;;;;9.25;7.60;;;14.40;99.90;;;;;;4988357;28;20129;-85
2021/07/11 00:17:10;;;;;;;10.25;8.25;;;14.30;99.90;;;;;;4990027;28;20050;-87
2021/07/11 00:23:04;;;;;;;8.48;7.68;;;14.20;99.90;;;;;;4982702;28;20134;-87
2021/07/11 00:25:31;;;;;;;8.45;7.57;;;14.00;99.90;;;;;;4989365;28;20550;-87
2021/07/11 00:27:57;;;;;;;9.10;8.30;;;13.90;99.90;;;;;;4989530;28;20141;-87
2021/07/11 00:30:26;;;;;;;9.70;8.57;;;13.80;99.90;;;;;;4990424;28;20580;-86
2021/07/11 00:32:54;;;;;;;14.88;9.98;;;13.70;99.90;;;;;;4989223;28;20051;-85
2021/07/11 00:35:21;;;;;;;11.45;8.98;;;13.70;99.90;;;;;;4988259;28;20047;-84
2021/07/11 00:37:48;;;;;;;11.13;9.95;;;13.60;99.90;;;;;;4991016;28;20065;-85
2021/07/11 00:40:17;;;;;;;11.52;10.05;;;13.60;99.90;;;;;;4988921;28;20051;-84
2021/07/11 00:42:44;;;;;;;10.90;9.85;;;13.50;99.90;;;;;;4989947;28;20052;-85
2021/07/11 00:45:14;;;;;;;12.15;9.05;;;13.50;99.90;;;;;;4988384;28;20046;-85
2021/07/11 00:47:42;;;;;;;10.93;10.05;;;13.30;99.90;;;;;;4988522;28;20500;-85
2021/07/11 00:50:12;;;;;;;13.95;11.02;;;13.30;99.90;;;;;;4988692;28;20050;-85
2021/07/11 00:52:39;;;;;;;12.77;11.50;;;13.40;99.90;;;;;;4989687;28;20046;-85
2021/07/11 00:55:07;;;;;;;15.10;10.48;;;13.40;99.90;;;;;;4988222;28;20078;-85
2021/07/11 00:57:50;;;;;;;10.48;9.43;;;13.30;99.90;;;;;;4989289;28;20081;-85
2021/07/11 01:00:17;;;;;;;12.95;10.65;;;13.20;99.90;;;;;;4988476;28;20089;-85
2021/07/11 01:02:54;;;;;;;16.27;11.60;;;13.20;99.90;;;;;;4988660;28;20122;-85
2021/07/11 01:05:23;;;;;;;11.65;10.52;;;13.30;99.90;;;;;;4988871;28;20082;-85
2021/07/11 01:07:56;;;;;;;13.18;11.88;;;13.40;99.90;;;;;;4985385;28;20070;-84
2021/07/11 01:10:31;;;;;;;18.40;12.50;;;13.40;99.90;;;;;;4982381;28;20081;-84
2021/07/11 01:12:59;;;;;;;14.23;12.57;;;13.40;99.90;;;;;;4989560;28;20055;-85
2021/07/11 01:15:46;;;;;;;13.77;11.32;;;13.50;99.90;;;;;;4988932;28;20583;-85
2021/07/11 01:18:28;;;;;;;12.73;11.15;;;13.50;99.90;;;;;;4982252;28;20058;-85
2021/07/11 01:21:05;;;;;;;14.63;11.95;;;13.60;99.90;;;;;;4989757;28;20061;-85
2021/07/11 01:23:36;;;;;;;13.60;12.23;;;13.60;99.90;;;;;;4989073;28;20050;-85
2021/07/11 01:26:07;;;;;;;14.65;11.85;;;13.50;99.90;;;;;;4989726;28;20130;-85
2021/07/11 01:28:34;;;;;;;13.13;11.73;;;13.50;99.90;;;;;;4989180;28;20089;-85
2021/07/11 01:31:02;;;;;;;12.80;11.50;;;13.60;99.90;;;;;;4988712;28;20081;-85
2021/07/11 01:33:31;;;;;;;15.02;11.27;;;13.50;99.90;;;;;;4989901;28;20047;-84
2021/07/11 01:35:58;;;;;;;13.00;11.00;;;13.50;99.90;;;;;;4988562;28;20047;-84
2021/07/11 01:38:26;;;;;;;12.68;11.48;;;13.40;99.90;;;;;;4988800;28;20078;-84
2021/07/11 01:40:53;;;;;;;14.25;10.63;;;13.50;99.90;;;;;;4989041;28;20081;-84
2021/07/11 01:43:22;;;;;;;13.95;11.43;;;13.40;99.90;;;;;;4989586;28;20058;-84
2021/07/11 01:45:54;;;;;;;12.23;11.05;;;13.30;99.90;;;;;;4989059;28;20070;-84
2021/07/11 01:48:21;;;;;;;13.70;10.35;;;13.20;99.90;;;;;;4988149;28;20066;-84
2021/07/11 01:50:50;;;;;;;13.43;10.52;;;13.10;99.90;;;;;;4988093;28;20082;-84
2021/07/11 01:53:21;;;;;;;16.08;11.70;;;13.10;99.90;;;;;;4987972;28;20058;-84
2021/07/11 01:55:50;;;;;;;12.68;11.48;;;13.20;99.90;;;;;;4987797;28;20054;-84
2021/07/11 01:58:17;;;;;;;17.02;13.50;;;13.20;99.90;;;;;;4988665;28;20576;-84
2021/07/11 02:00:44;;;;;;;12.23;10.93;;;13.10;99.90;;;;;;4987871;28;20055;-84
2021/07/11 02:03:20;;;;;;;12.48;10.35;;;13.00;99.90;;;;;;4988452;28;20058;-84
2021/07/11 02:05:48;;;;;;;11.93;10.73;;;12.90;99.90;;;;;;4987621;28;20054;-85
2021/07/11 02:08:15;;;;;;;11.52;10.30;;;12.80;99.90;;;;;;4989410;28;20051;-84
2021/07/11 02:10:46;;;;;;;11.73;10.63;;;12.90;99.90;;;;;;4988994;28;20075;-87
2021/07/11 02:13:28;;;;;;;15.82;10.35;;;12.90;99.90;;;;;;4988060;28;20066;-84
2021/07/11 02:16:02;;;;;;;13.02;10.95;;;12.80;99.90;;;;;;4987733;28;20464;-84
2021/07/11 02:18:29;;;;;;;12.82;11.50;;;12.80;99.90;;;;;;4987254;28;20560;-86
2021/07/11 02:20:57;;;;;;;15.02;11.75;;;12.80;99.90;;;;;;4987191;28;20078;-87
2021/07/11 02:23:25;;;;;;;12.30;10.90;;;12.90;99.90;;;;;;4985779;28;20085;-86
2021/07/11 02:25:53;;;;;;;17.50;11.50;;;12.90;99.90;;;;;;4985577;28;20109;-86
2021/07/11 02:28:20;;;;;;;11.10;10.00;;;12.90;99.90;;;;;;4977569;28;20134;-85
2021/07/11 02:30:53;;;;;;;11.60;10.50;;;12.90;99.90;;;;;;4983318;28;20083;-87
2021/07/11 02:33:36;;;;;;;16.90;11.18;;;12.70;99.90;;;;;;4986549;28;20078;-87
2021/07/11 02:36:09;;;;;;;14.85;10.88;;;12.70;99.90;;;;;;4987151;28;20051;-86
2021/07/11 02:38:46;;;;;;;12.25;11.05;;;12.60;99.90;;;;;;4988630;28;20050;-87
2021/07/11 02:41:15;;;;;;;13.20;11.80;;;12.50;99.90;;;;;;4986657;28;20058;-86
2021/07/11 02:43:43;;;;;;;13.20;11.77;;;12.60;99.90;;;;;;4986224;28;20086;-87
2021/07/11 02:46:12;;;;;;;14.63;12.23;;;12.70;99.90;;;;;;4987403;28;20085;-86
2021/07/11 02:48:42;;;;;;;14.65;10.70;;;12.60;99.90;;;;;;4986284;28;20054;-86
2021/07/11 02:51:14;;;;;;;16.10;11.30;;;12.50;99.90;;;;;;4986549;28;20509;-86
2021/07/11 02:53:43;;;;;;;13.30;11.98;;;12.50;99.90;;;;;;4986491;28;20053;-86
2021/07/11 02:56:13;;;;;;;13.15;11.38;;;12.40;99.90;;;;;;4986641;28;20051;-86
2021/07/11 02:58:42;;;;;;;10.98;9.90;;;12.40;99.90;;;;;;4986650;28;20078;-87
2021/07/11 03:01:10;;;;;;;12.52;11.07;;;12.30;99.90;;;;;;4985013;28;20062;-87
2021/07/11 03:03:37;;;;;;;12.30;11.15;;;12.20;99.90;;;;;;4985844;28;20085;-87
2021/07/11 03:06:04;;;;;;;14.43;11.80;;;12.20;99.90;;;;;;4985364;28;20078;-86
2021/07/11 03:08:31;;;;;;;12.85;11.50;;;12.10;99.90;;;;;;4985969;28;20047;-86
2021/07/11 03:11:00;;;;;;;19.23;13.15;;;12.10;99.90;;;;;;4986887;28;20115;-87
2021/07/11 03:13:27;;;;;;;13.20;12.00;;;12.10;99.90;;;;;;4985766;28;20058;-87
2021/07/11 03:15:54;;;;;;;13.80;12.43;;;12.10;99.90;;;;;;4988954;28;20047;-87
2021/07/11 03:18:22;;;;;;;13.43;12.02;;;12.30;99.90;;;;;;4990151;28;20571;-87
2021/07/11 03:20:50;;;;;;;13.38;12.05;;;12.40;99.90;;;;;;4990929;28;20077;-86
2021/07/11 03:23:18;;;;;;;14.20;12.65;;;12.40;99.90;;;;;;4990869;28;20065;-86
2021/07/11 03:25:49;;;;;;;15.13;12.52;;;12.40;99.90;;;;;;4990407;28;20055;-86
2021/07/11 03:28:20;;;;;;;12.38;11.25;;;12.30;99.90;;;;;;4990406;28;20053;-86
2021/07/11 03:30:49;;;;;;;15.93;12.85;;;12.30;99.90;;;;;;4991720;28;20122;-86
2021/07/11 03:33:17;;;;;;;13.98;12.18;;;12.30;99.90;;;;;;4990881;28;20047;-86
2021/07/11 03:36:04;;;;;;;17.00;13.13;;;12.30;99.90;;;;;;4990345;28;20043;-86
2021/07/11 03:38:38;;;;;;;20.85;15.32;;;12.40;99.90;;;;;;4991228;28;20055;-85
2021/07/11 03:41:07;;;;;;;15.68;14.00;;;12.30;99.90;;;;;;4990391;28;20066;-86
2021/07/11 03:43:39;;;;;;;22.05;14.50;;;12.40;99.90;;;;;;4987528;28;20082;-86
2021/07/11 03:46:08;;;;;;;16.90;14.35;;;12.30;99.90;;;;;;4985146;28;20080;-86
2021/07/11 03:48:45;;;;;;;18.10;12.75;;;12.40;99.90;;;;;;4981075;28;20417;-86
2021/07/11 03:51:13;;;;;;;15.60;13.95;;;12.50;99.90;;;;;;4984441;28;20134;-86
2021/07/11 03:53:40;;;;;;;15.18;13.77;;;12.50;99.90;;;;;;4990837;28;20110;-86
2021/07/11 03:56:08;;;;;;;19.90;15.90;;;12.50;99.90;;;;;;4989840;28;20047;-86
2021/07/11 03:58:38;;;;;;;14.30;12.82;;;12.50;99.90;;;;;;4990845;28;20074;-86
2021/07/11 04:01:06;;;;;;;16.05;14.23;;;12.50;99.90;;;;;;4990726;28;20081;-86
2021/07/11 04:03:38;;;;;;;15.60;13.52;;;12.70;99.90;;;;;;4989393;28;20067;-86
2021/07/11 04:06:09;;;;;;;14.80;13.30;;;12.70;99.90;;;;;;4990060;28;20054;-86
2021/07/11 04:08:35;;;;;;;15.77;12.43;;;12.70;99.90;;;;;;4991103;28;20070;-86
2021/07/11 04:11:04;;;;;;;17.27;14.73;;;12.80;99.90;;;;;;4990850;28;20074;-86
2021/07/11 04:13:33;;;;;;;15.68;13.82;;;12.80;99.90;;;;;;4991762;28;20567;-86
2021/07/11 04:16:04;;;;;;;17.33;14.93;;;12.90;99.90;;;;;;4992498;28;20073;-86
2021/07/11 04:18:43;;;;;;;15.75;13.85;;;12.90;99.90;;;;;;4990837;28;20078;-86
2021/07/11 04:21:12;;;;;;;15.90;14.30;;;13.00;99.90;;;;;;4990891;28;20477;-86
2021/07/11 04:23:40;;;;;;;16.77;15.05;;;13.10;99.90;;;;;;4990310;28;20081;-86
2021/07/11 04:26:07;;;;;;;17.02;14.93;;;13.20;99.90;;;;;;4988826;28;20106;-86
2021/07/11 04:28:40;;;;;;;21.67;16.23;;;13.40;99.90;;;;;;4990720;28;20051;-86
2021/07/11 04:31:07;;;;;;;17.92;16.17;;;13.50;99.90;;;;;;4991005;28;20073;-87
2021/07/11 04:33:35;;;;;;;14.82;13.30;;;13.70;99.90;;;;;;4990979;28;20065;-84
2021/07/11 04:36:06;;;;;;;14.60;13.07;;;13.80;99.90;;;;;;4989986;28;20043;-86
2021/07/11 04:38:33;;;;;;;11.80;10.70;;;13.90;99.90;;;;;;4989757;28;20054;-87
2021/07/11 04:41:05;;;;;;;9.77;8.80;;;14.00;99.90;;;;;;4986292;28;20125;-85
2021/07/11 04:43:32;;;;;;;10.38;9.40;;;14.10;99.90;;;;;;4982649;28;20073;-86
2021/07/11 04:45:59;;;;;;;11.27;9.43;;;14.30;99.90;;;;;;4979621;28;20137;-87
2021/07/11 04:48:26;;;;;;;10.68;8.10;;;14.40;99.90;;;;;;4983946;28;20503;-87
2021/07/11 04:50:55;;;;;;;10.23;7.35;;;14.50;99.90;;;;;;4979526;28;20183;-84
2021/07/11 04:53:22;;;;;;;6.53;5.80;;;14.80;99.90;;;;;;4978675;28;20485;-87
2021/07/11 04:55:49;;;;;;;10.85;6.22;;;15.10;99.90;;;;;;4981609;28;20047;-87
2021/07/11 04:58:16;;;;;;;6.18;5.57;;;15.30;99.90;;;;;;4984199;28;20067;-86
2021/07/11 05:00:43;;;;;;;7.57;6.63;;;15.50;99.90;;;;;;4984044;28;20046;-86
2021/07/11 05:03:10;;;;;;;8.20;6.45;;;15.50;99.90;;;;;;4982504;28;20106;-86
2021/07/11 05:05:44;;;;;;;8.82;5.50;;;15.50;99.90;;;;;;4986245;28;20125;-84
2021/07/11 05:08:16;;;;;;;7.38;5.03;;;15.70;99.90;;;;;;4990410;28;20050;-84
2021/07/11 05:10:42;;;;;;;8.27;5.07;;;15.80;99.90;;;;;;4986968;28;20047;-84
2021/07/11 05:13:09;;;;;;;6.80;5.53;;;16.00;99.90;;;;;;4989187;28;20055;-85
2021/07/11 05:15:36;;;;;;;9.15;5.35;;;16.20;99.90;;;;;;4987507;28;20137;-85
2021/07/11 05:18:03;;;;;;;11.00;5.72;;;16.40;99.90;;;;;;4989093;28;20053;-84
2021/07/11 05:20:30;;;;;;;9.43;5.85;;;16.30;99.90;;;;;;4987947;28;20078;-85
2021/07/11 05:22:57;;;;;;;10.27;5.50;;;16.30;99.90;;;;;;4980422;28;20086;-84
2021/07/11 05:25:24;;;;;;;10.52;5.25;;;16.50;99.90;;;;;;4978784;28;20047;-85
2021/07/11 05:27:54;;;;;;;10.57;5.25;;;16.40;99.90;;;;;;4979220;28;20047;-84
2021/07/11 05:30:22;;;;;;;14.98;5.32;;;16.50;99.90;;;;;;4976278;28;20098;-85
2021/07/11 05:32:50;;;;;;;9.23;4.57;;;16.80;99.90;;;;;;4976183;28;20061;-84
2021/07/11 05:35:17;;;;;;;13.40;5.07;;;17.20;99.90;;;;;;4976265;28;20089;-85
2021/07/11 05:37:45;;;;;;;12.45;4.45;;;17.80;99.90;;;;;;4975024;28;20053;-84
2021/07/11 05:40:15;;;;;;;6.65;4.25;;;18.30;99.90;;;;;;4975629;28;20394;-86
2021/07/11 05:42:44;;;;;;;5.80;3.90;;;18.50;99.90;;;;;;4975955;28;20054;-85
2021/07/11 05:45:14;;;;;;;6.78;4.10;;;18.60;99.90;;;;;;4974781;28;20050;-86
2021/07/11 05:47:41;;;;;;;4.43;4.05;;;18.80;99.90;;;;;;4975129;28;20140;-86
2021/07/11 05:50:16;;;;;;;8.38;4.07;;;18.90;99.90;;;;;;4974562;28;20043;-86
2021/07/11 05:52:43;;;;;;;7.97;4.13;;;19.20;99.90;;;;;;4974742;28;20070;-86
2021/07/11 05:55:11;;;;;;;4.13;3.83;;;19.60;99.90;;;;;;4974529;28;20061;-86
2021/07/11 05:57:39;;;;;;;6.45;3.58;;;20.50;99.90;;;;;;4974540;28;20057;-86
2021/07/11 06:00:08;;;;;;;3.45;3.15;;;21.00;99.90;;;;;;4976338;28;20077;-86
2021/07/11 06:02:35;;;;;;;3.60;3.30;;;21.20;99.90;;;;;;4975173;28;20089;-85
2021/07/11 06:05:07;;;;;;;4.15;3.17;;;21.40;99.90;;;;;;4975093;28;20055;-86
2021/07/11 06:07:35;;;;;;;4.03;3.42;;;21.80;99.90;;;;;;4974412;28;20054;-85
2021/07/11 06:10:08;;;;;;;3.58;3.10;;;21.60;99.90;;;;;;4979815;28;20047;-85
2021/07/11 06:12:38;;;;;;;3.33;3.13;;;21.50;99.90;;;;;;4983105;28;20055;-86
2021/07/11 06:15:13;;;;;;;4.10;3.75;;;21.40;99.90;;;;;;4981794;28;20066;-86
2021/07/11 06:17:40;;;;;;;3.97;3.60;;;21.20;99.90;;;;;;4976638;28;20047;-86
2021/07/11 06:20:10;;;;;;;3.55;3.35;;;21.10;99.90;;;;;;4976689;28;20054;-86
2021/07/11 06:22:38;;;;;;;3.72;3.40;;;21.10;99.90;;;;;;4976031;28;20055;-86
2021/07/11 06:25:06;;;;;;;3.63;3.42;;;21.10;99.90;;;;;;4977340;28;20058;-86
2021/07/11 06:27:38;;;;;;;5.53;3.25;;;21.00;99.90;;;;;;4978883;28;20505;-86
2021/07/11 06:30:10;;;;;;;3.88;3.55;;;20.90;99.90;;;;;;4980197;28;20123;-86
2021/07/11 06:32:49;;;;;;;3.78;3.53;;;20.90;99.90;;;;;;4977216;28;20055;-86
2021/07/11 06:35:20;;;;;;;3.83;3.47;;;20.90;99.90;;;;;;4977001;28;20054;-86
2021/07/11 06:37:47;;;;;;;3.88;3.58;;;20.90;99.90;;;;;;4978428;28;20386;-86
2021/07/11 06:40:17;;;;;;;3.92;3.70;;;20.90;99.90;;;;;;4976996;28;20047;-86
2021/07/11 06:42:44;;;;;;;4.18;3.35;;;21.10;99.90;;;;;;4977943;28;20054;-86
2021/07/11 06:45:13;;;;;;;3.78;3.58;;;21.20;99.90;;;;;;4977232;28;20053;-86
2021/07/11 06:47:40;;;;;;;4.20;3.17;;;21.40;99.90;;;;;;4977052;28;20488;-85
2021/07/11 06:50:08;;;;;;;3.72;3.42;;;21.40;99.90;;;;;;4979466;28;20046;-86
2021/07/11 06:52:36;;;;;;;4.15;3.20;;;21.40;99.90;;;;;;4980401;28;20042;-86
2021/07/11 06:55:05;;;;;;;3.42;3.13;;;21.70;99.90;;;;;;4979628;28;20459;-88
2021/07/11 06:57:33;;;;;;;3.13;2.92;;;22.00;99.90;;;;;;4978947;28;20051;-86
2021/07/11 07:00:01;;;;;;;6.68;3.05;;;22.10;99.90;;;;;;4978775;28;20561;-86
2021/07/11 07:02:28;;;;;;;3.50;3.25;;;22.20;99.90;;;;;;4978137;28;20046;-85
2021/07/11 07:04:57;;;;;;;3.10;2.90;;;22.20;99.90;;;;;;4977648;28;20075;-85
2021/07/11 07:07:23;;;;;;;2.95;2.75;;;21.90;99.90;;;;;;4979554;28;20085;-86
2021/07/11 07:09:50;;;;;;;3.00;2.80;;;21.50;99.90;;;;;;4979320;28;20101;-87
2021/07/11 07:12:17;;;;;;;3.45;2.70;;;21.50;99.90;;;;;;4978551;28;20082;-86
2021/07/11 07:14:46;;;;;;;4.07;2.88;;;21.70;99.90;;;;;;4980196;28;20412;-85
2021/07/11 07:17:13;;;;;;;3.17;2.95;;;22.10;99.90;;;;;;4980055;28;20047;-86
2021/07/11 07:19:42;;;;;;;3.20;2.92;;;22.20;99.90;;;;;;4982410;28;20474;-85
2021/07/11 07:22:09;;;;;;;2.95;2.65;;;22.20;99.90;;;;;;4979031;28;20057;-86
2021/07/11 07:24:36;;;;;;;4.47;2.90;;;22.30;99.90;;;;;;4980514;28;20509;-86
2021/07/11 07:27:03;;;;;;;3.80;2.47;;;22.30;99.90;;;;;;4978745;28;20055;-86
2021/07/11 07:29:30;;;;;;;3.13;2.67;;;22.50;99.90;;;;;;4978720;28;20102;-86
2021/07/11 07:31:58;;;;;;;2.90;2.70;;;22.60;99.90;;;;;;4978148;28;20134;-85
2021/07/11 07:34:25;;;;;;;3.05;2.85;;;22.80;99.90;;;;;;4978997;28;20046;-85
2021/07/11 07:37:06;;;;;;;2.80;2.60;;;23.00;99.90;;;;;;4978622;28;20043;-86
2021/07/11 07:39:33;;;;;;;2.95;2.42;;;22.70;99.90;;;;;;4979479;28;20081;-85
2021/07/11 07:42:05;;;;;;;3.20;3.00;;;22.30;99.90;;;;;;4978526;28;20051;-85
2021/07/11 07:44:33;;;;;;;2.58;2.47;;;22.10;99.90;;;;;;4978153;28;20126;-85
2021/07/11 07:47:00;;;;;;;3.03;2.60;;;22.20;99.90;;;;;;4980597;28;20237;-86
2021/07/11 07:49:27;;;;;;;2.97;2.80;;;22.30;99.90;;;;;;4981119;28;20054;-86
2021/07/11 07:52:10;;;;;;;3.28;2.90;;;22.30;99.90;;;;;;4983713;28;20047;-85
2021/07/11 07:54:37;;;;;;;2.95;2.80;;;22.10;99.90;;;;;;4980256;28;20054;-85
2021/07/11 07:57:10;;;;;;;2.97;2.80;;;21.90;99.90;;;;;;4978853;28;20046;-85
2021/07/11 07:59:37;;;;;;;2.83;2.35;;;21.90;99.90;;;;;;4978333;28;20051;-85
2021/07/11 08:02:04;;;;;;;3.20;3.00;;;21.90;99.90;;;;;;4979873;28;20058;-85
2021/07/11 08:04:32;;;;;;;2.92;2.67;;;21.90;99.90;;;;;;4979757;28;20090;-86
2021/07/11 08:06:59;;;;;;;3.60;3.03;;;21.80;99.90;;;;;;4978677;28;20066;-86
2021/07/11 08:09:27;;;;;;;2.90;2.70;;;21.80;99.90;;;;;;4978351;28;20129;-87
2021/07/11 08:11:54;;;;;;;3.85;2.70;;;21.90;99.90;;;;;;4979084;28;20082;-86
2021/07/11 08:14:39;;;;;;;2.88;2.67;;;21.90;99.90;;;;;;4977804;28;20055;-87
2021/07/11 08:17:06;;;;;;;3.25;2.95;;;22.00;99.90;;;;;;4978301;28;20047;-86
2021/07/11 08:19:33;;;;;;;4.05;2.80;;;21.80;99.90;;;;;;4980570;28;20141;-87
2021/07/11 08:22:03;;;;;;;3.10;3.00;;;21.50;99.90;;;;;;4981084;28;20059;-86
2021/07/11 08:24:31;;;;;;;3.00;2.80;;;21.50;99.90;;;;;;4980618;28;20058;-86
2021/07/11 08:26:58;;;;;;;4.15;2.80;;;21.60;99.90;;;;;;4979257;28;20058;-88
2021/07/11 08:29:25;;;;;;;2.92;2.72;;;21.80;99.90;;;;;;4979601;28;20043;-87
2021/07/11 08:31:52;;;;;;;3.35;2.88;;;21.80;99.90;;;;;;4982314;28;20047;-86
2021/07/11 08:34:19;;;;;;;3.30;3.00;;;21.90;99.90;;;;;;4980018;28;20109;-86
2021/07/11 08:36:46;;;;;;;3.10;2.90;;;22.00;99.90;;;;;;4981078;28;20050;-85
2021/07/11 08:39:13;;;;;;;3.50;2.97;;;21.70;99.90;;;;;;4980872;28;20484;-87
2021/07/11 08:41:39;;;;;;;2.80;2.60;;;21.70;99.90;;;;;;4979037;28;20130;-87
2021/07/11 08:44:07;;;;;;;3.22;2.78;;;21.50;99.90;;;;;;4978052;28;20493;-87
2021/07/11 08:46:34;;;;;;;3.15;2.95;;;21.30;99.90;;;;;;4977974;28;20078;-87
2021/07/11 08:49:01;;;;;;;3.03;2.92;;;21.20;99.90;;;;;;4975567;28;20058;-86
2021/07/11 08:51:34;;;;;;;3.28;3.13;;;20.90;99.90;;;;;;4978848;28;20110;-85
2021/07/11 08:54:02;;;;;;;3.10;2.80;;;20.70;99.90;;;;;;4980087;28;20113;-87
2021/07/11 08:56:29;;;;;;;3.20;3.00;;;20.40;99.90;;;;;;4978952;28;20051;-87
2021/07/11 08:59:30;;;;;;;6.28;3.38;;;20.40;99.90;;;;;;4979940;28;20404;-86
2021/07/11 09:01:58;;;;;;;3.17;2.97;;;20.40;99.90;;;;;;4978211;28;20090;-86
2021/07/11 09:04:25;;;;;;;3.40;3.20;;;20.50;99.90;;;;;;4979179;28;20074;-85
2021/07/11 09:06:56;;;;;;;3.03;2.83;;;20.50;99.90;;;;;;4979407;28;20129;-85
2021/07/11 09:09:24;;;;;;;6.25;3.53;;;20.50;99.90;;;;;;4982744;28;20071;-87
2021/07/11 09:11:59;;;;;;;4.75;4.20;;;20.60;99.90;;;;;;4976580;28;20086;-86
2021/07/11 09:14:28;;;;;;;5.07;3.85;;;20.60;99.90;;;;;;4978398;28;20082;-87
2021/07/11 09:16:57;;;;;;;4.65;4.25;;;20.60;99.90;;;;;;4977549;28;20070;-87
2021/07/11 09:19:32;;;;;;;7.93;6.78;;;20.70;99.90;;;;;;4978845;28;20046;-86
2021/07/11 09:22:06;;;;;;;5.70;4.40;;;20.80;99.90;;;;;;4976970;28;20050;-86
2021/07/11 09:24:35;;;;;;;9.13;5.10;;;20.90;99.90;;;;;;4975596;28;20137;-85
2021/07/11 09:27:25;;;;;;;10.82;5.90;;;20.90;99.90;;;;;;4977611;28;20456;-87
2021/07/11 09:29:58;;;;;;;3.20;3.00;;;20.80;99.90;;;;;;4980094;28;20082;-85
2021/07/11 09:32:38;;;;;;;4.35;3.30;;;20.80;99.90;;;;;;4980677;28;20138;-88
2021/07/11 09:35:14;;;;;;;5.78;4.10;;;20.70;99.90;;;;;;4976946;28;20074;-86
2021/07/11 09:37:43;;;;;;;4.07;3.70;;;20.90;99.90;;;;;;4978220;28;20059;-86
2021/07/11 09:40:17;;;;;;;5.63;4.55;;;21.00;99.90;;;;;;4979947;28;20455;-86
2021/07/11 09:42:46;;;;;;;4.90;4.38;;;21.20;99.90;;;;;;4979896;28;20097;-87
2021/07/11 09:45:20;;;;;;;3.95;3.75;;;21.30;99.90;;;;;;4976838;28;20082;-87
2021/07/11 09:47:50;;;;;;;3.33;2.92;;;21.60;99.90;;;;;;4976812;28;20070;-87
2021/07/11 09:50:24;;;;;;;3.55;3.25;;;21.80;99.90;;;;;;4977021;28;20051;-85
2021/07/11 09:52:56;;;;;;;4.30;3.13;;;22.10;99.90;;;;;;4975729;28;20051;-88
2021/07/11 09:55:27;;;;;;;8.50;4.32;;;22.40;99.90;;;;;;4982622;28;20054;-87
2021/07/11 09:57:59;;;;;;;5.20;3.53;;;22.30;99.90;;;;;;4978859;28;20046;-87
2021/07/11 10:00:37;;;;;;;4.18;3.15;;;22.50;99.90;;;;;;4976998;28;20113;-87
2021/07/11 10:03:07;;;;;;;3.38;3.17;;;22.60;99.90;;;;;;4977062;28;20473;-86
2021/07/11 10:05:35;;;;;;;4.97;3.50;;;22.90;99.90;;;;;;4980107;28;20054;-86
2021/07/11 10:08:17;;;;;;;3.03;2.75;;;23.30;99.90;;;;;;4979449;28;20125;-85
2021/07/11 10:10:44;;;;;;;2.83;2.70;;;23.40;99.90;;;;;;4975840;28;20102;-85
2021/07/11 10:13:11;;;;;;;4.15;2.90;;;23.40;99.90;;;;;;4978322;28;20055;-85
2021/07/11 10:15:41;;;;;;;2.90;2.65;;;23.10;99.90;;;;;;4977016;28;20097;-86
2021/07/11 10:18:13;;;;;;;3.97;3.05;;;22.60;99.90;;;;;;4976862;28;20459;-85
2021/07/11 10:20:49;;;;;;;3.33;3.05;;;22.30;99.90;;;;;;4977259;28;20050;-86
2021/07/11 10:23:51;;;;;;;3.40;3.10;;;22.00;99.90;;;;;;4978334;28;20070;-86
2021/07/11 10:26:20;;;;;;;3.30;3.10;;;21.90;99.90;;;;;;4966798;28;20082;-86
2021/07/11 10:28:49;;;;;;;3.05;2.80;;;22.00;99.90;;;;;;4975722;28;20512;-85
2021/07/11 10:31:25;;;;;;;3.65;2.95;;;22.30;99.90;;;;;;4977776;28;20097;-86
2021/07/11 10:33:55;;;;;;;4.68;2.80;;;22.70;99.90;;;;;;4975639;28;20515;-87
2021/07/11 10:36:42;;;;;;;6.15;3.95;;;23.10;99.90;;;;;;4976887;28;20047;-86
2021/07/11 10:39:12;;;;;;;7.05;4.40;;;23.50;99.90;;;;;;4976036;28;20134;-88
2021/07/11 10:41:53;;;;;;;3.97;2.83;;;23.70;99.90;;;;;;4977441;28;20090;-85
2021/07/11 10:44:22;;;;;;;2.97;2.78;;;23.90;99.90;;;;;;4978912;28;20062;-87
2021/07/11 10:46:57;;;;;;;2.47;2.38;;;23.90;99.90;;;;;;4976424;28;20089;-87
2021/07/11 10:49:31;;;;;;;2.75;2.63;;;24.10;99.90;;;;;;4977126;28;20485;-86
2021/07/11 10:52:03;;;;;;;2.88;2.78;;;23.80;99.90;;;;;;4978689;28;20460;-86
2021/07/11 10:54:38;;;;;;;3.55;3.20;;;23.60;99.90;;;;;;4977433;28;20137;-85
2021/07/11 10:57:08;;;;;;;3.70;3.50;;;23.30;99.90;;;;;;4977850;28;20051;-87
2021/07/11 10:59:50;;;;;;;3.42;3.22;;;23.10;99.90;;;;;;4976245;28;20067;-86
2021/07/11 11:02:20;;;;;;;7.38;3.60;;;23.20;99.90;;;;;;4977339;28;20047;-85
2021/07/11 11:05:05;;;;;;;3.50;3.35;;;23.60;99.90;;;;;;4978298;28;20111;-85
2021/07/11 11:07:55;;;;;;;6.18;2.95;;;23.90;99.90;;;;;;4976434;28;20086;-85
2021/07/11 11:10:33;;;;;;;2.80;2.70;;;23.90;99.90;;;;;;4978079;28;20114;-86
2021/07/11 11:13:06;;;;;;;3.40;2.55;;;24.20;99.90;;;;;;4976386;28;20050;-84
2021/07/11 11:15:53;;;;;;;2.83;2.63;;;24.70;99.90;;;;;;4978553;28;20047;-86
2021/07/11 11:18:52;;;;;;;2.67;2.58;;;24.50;99.90;;;;;;4975106;28;20058;-86
2021/07/11 11:21:21;;;;;;;4.25;3.35;;;24.70;99.90;;;;;;4975519;28;20050;-86
2021/07/11 11:23:55;;;;;;;5.53;3.10;;;24.30;99.90;;;;;;4974481;28;20147;-85
2021/07/11 11:27:01;;;;;;;2.80;2.60;;;24.20;99.90;;;;;;4974084;28;20065;-86
2021/07/11 11:29:28;;;;;;;4.13;3.28;;;23.90;99.90;;;;;;4976592;28;20496;-85
2021/07/11 11:32:08;;;;;;;2.67;2.58;;;23.70;99.90;;;;;;4976579;28;20047;-85
2021/07/11 11:34:35;;;;;;;4.43;2.65;;;23.30;99.90;;;;;;4976051;28;20043;-85
2021/07/11 11:37:03;;;;;;;17.08;3.13;;;22.80;99.90;;;;;;4978732;28;20054;-86
2021/07/11 11:39:36;;;;;;;6.35;3.50;;;22.50;99.90;;;;;;4984205;28;20460;-86
2021/07/11 11:42:05;;;;;;;2.90;2.80;;;22.10;99.90;;;;;;4981853;28;20105;-86
2021/07/11 11:44:41;;;;;;;3.63;2.80;;;22.00;99.90;;;;;;4978941;28;20090;-87
2021/07/11 11:47:09;;;;;;;2.55;2.45;;;22.00;99.90;;;;;;4979370;28;20122;-87
2021/07/11 11:49:36;;;;;;;2.83;2.70;;;22.10;99.90;;;;;;4980907;28;20061;-86
2021/07/11 11:52:04;;;;;;;2.60;2.50;;;22.20;99.90;;;;;;4983198;28;20042;-85
2021/07/11 11:54:41;;;;;;;4.45;2.60;;;22.20;99.90;;;;;;4982007;28;20051;-87
2021/07/11 11:57:09;;;;;;;2.80;2.58;;;22.20;99.90;;;;;;4978166;28;20046;-87
2021/07/11 11:59:37;;;;;;;3.40;3.17;;;22.30;99.90;;;;;;4979909;28;20055;-88
2021/07/11 12:02:09;;;;;;;2.65;2.45;;;22.40;99.90;;;;;;4980482;28;20070;-85
2021/07/11 12:04:36;;;;;;;2.85;2.47;;;22.50;99.90;;;;;;4981181;28;20468;-87
2021/07/11 12:07:07;;;;;;;2.63;2.47;;;22.50;99.90;;;;;;4980270;28;20133;-84
2021/07/11 12:09:35;;;;;;;5.75;3.20;;;22.50;99.90;;;;;;4979602;28;20054;-85
2021/07/11 12:12:05;;;;;;;2.42;2.20;;;22.60;99.90;;;;;;4978309;28;20055;-84
2021/07/11 12:14:56;;;;;;;2.10;2.00;;;22.60;99.90;;;;;;4979091;28;20061;-86
2021/07/11 12:17:23;;;;;;;2.33;2.15;;;22.40;99.90;;;;;;4977518;28;20135;-86
2021/07/11 12:19:54;;;;;;;2.15;2.05;;;22.50;99.90;;;;;;4979760;28;20073;-86
2021/07/11 12:22:31;;;;;;;2.38;2.08;;;22.50;99.90;;;;;;4978636;28;20082;-87
2021/07/11 12:25:25;;;;;;;2.80;2.60;;;22.30;99.90;;;;;;4977560;28;20094;-88
2021/07/11 12:28:03;;;;;;;;;;;22.20;99.90;;;;;;4979218;28;20101;-87
2021/07/11 12:30:39;;;;;;;1.88;1.85;;;22.20;99.90;;;;;;4977815;28;20336;-85
2021/07/11 12:33:07;;;;;;;2.10;2.00;;;22.10;99.90;;;;;;4977025;28;20054;-85
2021/07/11 12:35:49;;;;;;;2.15;2.10;;;22.00;99.90;;;;;;4978037;28;20082;-86
2021/07/11 12:38:16;;;;;;;1.95;1.88;;;21.90;99.90;;;;;;4977341;28;20083;-87
2021/07/11 12:40:58;;;;;;;1.90;1.90;;;21.70;99.90;;;;;;4977499;28;20070;-87
2021/07/11 12:43:31;;;;;;;3.88;1.88;;;21.50;99.90;;;;;;4977297;28;20055;-87
2021/07/11 12:46:06;;;;;;;2.13;2.00;;;21.50;99.90;;;;;;4978789;28;20408;-86
2021/07/11 12:48:36;;;;;;;2.00;1.90;;;21.40;99.90;;;;;;4977430;28;20184;-86
2021/07/11 12:51:19;;;;;;;1.52;1.50;;;21.30;99.90;;;;;;4975642;28;20089;-85
2021/07/11 12:53:50;;;;;;;2.05;1.52;;;21.50;99.90;;;;;;4976636;28;20070;-86
2021/07/11 12:56:25;;;;;;;2.00;1.80;;;21.60;99.90;;;;;;4961297;28;20046;-88
2021/07/11 12:58:54;;;;;;;3.35;2.58;;;21.70;99.90;;;;;;4976852;28;20057;-88
2021/07/11 13:01:25;;;;;;;1.83;1.77;;;21.80;99.90;;;;;;4976468;28;20086;-88